createdAt,value
2023-04-05T00:02:11.059Z,5.03
2023-04-05T00:04:38.631Z,5.43
2023-04-05T00:07:08.324Z,5.03
2023-04-05T00:09:35.021Z,5.00
2023-04-05T00:12:01.788Z,5.57
2023-04-05T00:14:40.250Z,5.05
2023-04-05T00:17:08.099Z,5.25
2023-04-05T00:19:40.917Z,5.13
2023-04-05T00:22:10.464Z,4.97
2023-04-05T00:24:57.467Z,4.80
2023-04-05T00:27:24.097Z,4.82
2023-04-05T00:30:14.421Z,5.13
2023-04-05T00:32:41.134Z,4.80
2023-04-05T00:35:08.179Z,5.22
2023-04-05T00:37:34.851Z,5.93
2023-04-05T00:40:01.564Z,5.25
2023-04-05T00:42:28.195Z,4.78
2023-04-05T00:44:54.821Z,4.85
2023-04-05T00:47:34.287Z,5.05
2023-04-05T00:50:01.187Z,4.80
2023-04-05T00:52:28.673Z,5.50
2023-04-05T00:54:56.570Z,4.63
2023-04-05T00:57:24.976Z,5.47
2023-04-05T00:59:51.820Z,5.15
2023-04-05T01:02:25.174Z,4.70
2023-04-05T01:05:00.973Z,4.82
2023-04-05T01:07:50.903Z,5.03
2023-04-05T01:10:27.338Z,7.07
2023-04-05T01:12:54.875Z,7.53
2023-04-05T01:15:21.866Z,5.43
2023-04-05T01:17:48.909Z,5.43
2023-04-05T01:20:15.682Z,6.65
2023-04-05T01:23:07.424Z,4.97
2023-04-05T01:25:43.275Z,5.73
2023-04-05T01:28:15.562Z,5.78
2023-04-05T01:33:13.855Z,4.65
2023-04-05T01:35:56.095Z,5.63
2023-04-05T01:38:25.332Z,4.82
2023-04-05T01:40:53.585Z,4.95
2023-04-05T01:43:39.451Z,5.60
2023-04-05T01:46:18.917Z,5.13
2023-04-05T01:48:45.718Z,4.80
2023-04-05T01:51:12.354Z,5.18
2023-04-05T01:53:39.056Z,5.30
2023-04-05T01:56:05.860Z,5.13
2023-04-05T01:58:32.495Z,4.82
2023-04-05T02:00:59.173Z,4.53
2023-04-05T02:03:26.381Z,5.10
2023-04-05T02:05:53.157Z,5.20
2023-04-05T02:08:25.817Z,5.57
2023-04-05T02:10:55.486Z,6.03
2023-04-05T02:13:26.523Z,5.78
2023-04-05T02:15:53.243Z,5.13
2023-04-05T02:18:22.199Z,5.40
2023-04-05T02:20:50.373Z,5.47
2023-04-05T02:23:18.920Z,5.95
2023-04-05T02:25:59.033Z,5.45
2023-04-05T02:28:26.098Z,5.10
2023-04-05T02:30:53.046Z,5.55
2023-04-05T02:33:19.959Z,5.28
2023-04-05T02:35:49.853Z,5.20
2023-04-05T02:38:16.533Z,5.20
2023-04-05T02:40:43.327Z,5.38
2023-04-05T02:43:35.585Z,4.93
2023-04-05T02:46:02.285Z,5.10
2023-04-05T02:48:28.928Z,5.82
2023-04-05T02:50:55.947Z,5.00
2023-04-05T02:53:22.605Z,5.57
2023-04-05T02:55:56.998Z,5.93
2023-04-05T02:58:24.154Z,5.55
2023-04-05T03:00:53.103Z,6.28
2023-04-05T03:03:23.931Z,7.72
2023-04-05T03:06:01.636Z,14.02
2023-04-05T03:08:28.809Z,16.48
2023-04-05T03:10:55.653Z,13.52
2023-04-05T03:13:22.436Z,9.75
2023-04-05T03:15:53.391Z,8.20
2023-04-05T03:18:20.570Z,6.15
2023-04-05T03:20:49.986Z,6.65
2023-04-05T03:23:16.750Z,6.07
2023-04-05T03:25:43.397Z,5.68
2023-04-05T03:28:10.279Z,5.50
2023-04-05T03:30:37.086Z,6.43
2023-04-05T03:33:04.426Z,5.68
2023-04-05T03:35:31.368Z,5.75
2023-04-05T03:37:58.122Z,5.43
2023-04-05T03:40:25.398Z,5.63
2023-04-05T03:42:52.208Z,5.88
2023-04-05T03:45:23.709Z,6.18
2023-04-05T03:50:18.815Z,5.63
2023-04-05T03:52:46.370Z,5.50
2023-04-05T03:55:13.820Z,5.95
2023-04-05T03:57:41.652Z,5.80
2023-04-05T04:00:14.937Z,5.82
2023-04-05T04:02:45.949Z,6.88
2023-04-05T04:05:13.803Z,6.18
2023-04-05T04:07:41.955Z,5.50
2023-04-05T04:10:10.390Z,6.45
2023-04-05T04:12:37.688Z,5.88
2023-04-05T04:15:28.048Z,5.75
2023-04-05T04:17:54.707Z,5.80
2023-04-05T04:20:21.510Z,6.97
2023-04-05T04:22:48.808Z,6.20
2023-04-05T04:25:17.758Z,5.55
2023-04-05T04:27:44.713Z,5.65
2023-04-05T04:30:16.091Z,5.63
2023-04-05T04:32:55.678Z,5.80
2023-04-05T04:35:25.041Z,5.60
2023-04-05T04:37:59.901Z,6.07
2023-04-05T04:40:38.701Z,6.05
2023-04-05T04:43:06.827Z,5.93
2023-04-05T04:45:34.791Z,5.30
2023-04-05T04:48:04.928Z,5.25
2023-04-05T04:50:32.184Z,6.05
2023-04-05T04:53:07.611Z,5.28
2023-04-05T04:55:36.091Z,5.85
2023-04-05T04:58:09.834Z,5.75
2023-04-05T05:00:39.743Z,6.32
2023-04-05T05:03:08.357Z,6.15
2023-04-05T05:05:35.156Z,6.43
2023-04-05T05:08:01.901Z,7.80
2023-04-05T05:10:44.885Z,8.27
2023-04-05T05:13:11.585Z,6.38
2023-04-05T05:15:45.497Z,6.93
2023-04-05T05:18:12.562Z,7.03
2023-04-05T05:20:40.046Z,6.53
2023-04-05T05:23:06.955Z,5.28
2023-04-05T05:25:33.732Z,5.45
2023-04-05T05:28:00.387Z,5.57
2023-04-05T05:30:28.367Z,9.38
2023-04-05T05:32:55.151Z,6.43
2023-04-05T05:35:21.943Z,6.70
2023-04-05T05:38:02.028Z,5.43
2023-04-05T05:40:28.715Z,5.53
2023-04-05T05:42:55.432Z,6.60
2023-04-05T05:45:22.126Z,4.93
2023-04-05T05:47:48.845Z,5.35
2023-04-05T05:50:17.145Z,5.55
2023-04-05T05:52:43.828Z,6.95
2023-04-05T05:55:28.838Z,5.70
2023-04-05T05:57:55.702Z,5.53
2023-04-05T06:00:33.675Z,5.38
2023-04-05T06:03:01.632Z,5.70
2023-04-05T06:05:29.220Z,5.53
2023-04-05T06:07:55.887Z,5.32
2023-04-05T06:10:24.214Z,5.22
2023-04-05T06:12:51.394Z,5.25
2023-04-05T06:15:18.234Z,5.03
2023-04-05T06:18:14.310Z,5.28
2023-04-05T06:20:43.077Z,4.63
2023-04-05T06:23:11.043Z,5.13
2023-04-05T06:25:37.925Z,4.85
2023-04-05T06:28:10.543Z,4.50
2023-04-05T06:30:37.240Z,6.28
2023-04-05T06:33:03.958Z,5.72
2023-04-05T06:35:30.858Z,10.88
2023-04-05T06:37:57.602Z,7.28
2023-04-05T06:40:24.343Z,40.90
2023-04-05T06:42:50.989Z,13.15
2023-04-05T06:45:19.147Z,11.48
2023-04-05T06:47:45.906Z,5.38
2023-04-05T06:50:18.131Z,5.28
2023-04-05T06:52:44.737Z,5.80
2023-04-05T06:55:11.464Z,5.45
2023-04-05T06:57:38.117Z,5.43
2023-04-05T07:00:11.859Z,5.53
2023-04-05T07:02:39.261Z,6.45
2023-04-05T07:05:06.601Z,6.28
2023-04-05T07:07:44.401Z,5.55
2023-04-05T07:10:11.725Z,12.38
2023-04-05T07:12:39.458Z,5.25
2023-04-05T07:15:07.012Z,4.93
2023-04-05T07:17:33.724Z,6.60
2023-04-05T07:20:00.391Z,7.30
2023-04-05T07:22:27.058Z,7.15
2023-04-05T07:24:55.551Z,4.57
2023-04-05T07:27:22.306Z,5.32
2023-04-05T07:29:49.319Z,8.82
2023-04-05T07:32:15.978Z,5.78
2023-04-05T07:34:42.679Z,5.00
2023-04-05T07:37:09.359Z,5.20
2023-04-05T07:39:36.172Z,6.03
2023-04-05T07:42:02.904Z,6.00
2023-04-05T07:44:29.631Z,6.78
2023-04-05T07:46:56.524Z,5.13
2023-04-05T07:49:27.679Z,7.47
2023-04-05T07:51:56.392Z,4.28
2023-04-05T07:54:23.789Z,7.47
2023-04-05T07:56:51.802Z,5.63
2023-04-05T07:59:18.535Z,4.28
2023-04-05T08:01:45.347Z,4.50
2023-04-05T08:04:12.555Z,5.70
2023-04-05T08:06:39.362Z,6.80
2023-04-05T08:09:06.301Z,4.03
2023-04-05T08:11:33.188Z,4.60
2023-04-05T08:14:00.256Z,4.35
2023-04-05T08:16:27.378Z,4.72
2023-04-05T08:18:54.051Z,4.10
2023-04-05T08:21:22.543Z,4.35
2023-04-05T08:23:50.108Z,4.80
2023-04-05T08:26:17.258Z,3.63
2023-04-05T08:28:43.972Z,3.55
2023-04-05T08:31:13.416Z,3.83
2023-04-05T08:33:40.904Z,3.92
2023-04-05T08:36:09.562Z,4.10
2023-04-05T08:38:36.893Z,4.28
2023-04-05T08:41:18.698Z,4.05
2023-04-05T08:44:05.757Z,5.03
2023-04-05T08:46:35.729Z,4.32
2023-04-05T08:49:09.003Z,4.63
2023-04-05T08:51:41.402Z,4.07
2023-04-05T08:54:08.416Z,4.47
2023-04-05T08:56:36.235Z,4.25
2023-04-05T08:59:06.235Z,4.40
2023-04-05T09:01:36.445Z,4.18
2023-04-05T09:04:07.648Z,4.40
2023-04-05T09:06:36.702Z,4.45
2023-04-05T09:09:07.609Z,4.22
2023-04-05T09:11:35.626Z,4.30
2023-04-05T09:14:11.747Z,5.10
2023-04-05T09:16:40.591Z,5.03
2023-04-05T09:19:08.741Z,4.63
2023-04-05T09:22:01.786Z,4.72
2023-04-05T09:24:42.008Z,5.18
2023-04-05T09:27:12.064Z,5.43
2023-04-05T09:29:40.603Z,4.97
2023-04-05T09:32:09.163Z,5.57
2023-04-05T09:34:37.589Z,4.90
2023-04-05T09:37:21.358Z,5.15
2023-04-05T09:39:50.663Z,4.40
2023-04-05T09:42:26.708Z,5.00
2023-04-05T09:45:03.172Z,4.60
2023-04-05T09:47:51.797Z,4.57
2023-04-05T09:50:20.186Z,4.80
2023-04-05T09:52:47.064Z,4.50
2023-04-05T09:55:14.485Z,4.70
2023-04-05T09:57:43.748Z,4.57
2023-04-05T10:00:21.618Z,4.90
2023-04-05T10:02:53.633Z,4.38
2023-04-05T10:05:24.747Z,4.68
2023-04-05T10:07:52.301Z,4.50
2023-04-05T10:10:29.077Z,5.05
2023-04-05T10:12:55.987Z,5.68
2023-04-05T10:15:32.161Z,4.65
2023-04-05T10:18:17.759Z,5.32
2023-04-05T10:21:23.862Z,6.03
2023-04-05T10:24:05.899Z,4.40
2023-04-05T10:27:27.261Z,4.45
2023-04-05T10:30:08.796Z,4.55
2023-04-05T10:33:08.598Z,4.80
2023-04-05T10:36:03.232Z,4.53
2023-04-05T10:38:34.052Z,4.32
2023-04-05T10:41:10.558Z,5.32
2023-04-05T10:43:40.702Z,3.95
2023-04-05T10:46:08.927Z,4.32
2023-04-05T10:48:54.199Z,4.82
2023-04-05T10:51:27.555Z,4.30
2023-04-05T10:54:05.846Z,4.13
2023-04-05T10:56:33.307Z,4.40
2023-04-05T10:59:01.954Z,4.25
2023-04-05T11:01:28.952Z,4.43
2023-04-05T11:03:55.941Z,4.78
2023-04-05T11:06:32.443Z,5.10
2023-04-05T11:09:20.925Z,4.45
2023-04-05T11:11:52.382Z,5.97
2023-04-05T11:14:26.656Z,5.13
2023-04-05T11:16:56.880Z,4.57
2023-04-05T11:19:52.530Z,4.75
2023-04-05T11:22:28.269Z,4.97
2023-04-05T11:24:57.925Z,4.00
2023-04-05T11:27:32.872Z,4.30
2023-04-05T11:30:06.430Z,4.47
2023-04-05T11:32:48.302Z,4.28
2023-04-05T11:35:25.734Z,4.10
2023-04-05T11:38:17.183Z,4.53
2023-04-05T11:40:44.317Z,3.85
2023-04-05T11:43:17.342Z,4.68
2023-04-05T11:45:44.008Z,4.30
2023-04-05T11:48:13.179Z,4.88
2023-04-05T11:50:45.372Z,4.60
2023-04-05T11:53:16.298Z,4.35
2023-04-05T11:55:48.250Z,4.47
2023-04-05T11:58:19.468Z,4.93
2023-04-05T12:00:46.922Z,4.60
2023-04-05T12:03:16.968Z,4.68
2023-04-05T12:05:54.509Z,4.60
2023-04-05T12:08:22.245Z,4.57
2023-04-05T12:11:01.278Z,4.68
2023-04-05T12:13:29.278Z,4.28
2023-04-05T12:16:07.088Z,4.65
2023-04-05T12:18:35.813Z,4.65
2023-04-05T12:21:18.030Z,4.55
2023-04-05T12:23:44.894Z,4.65
2023-04-05T12:26:11.681Z,5.13
2023-04-05T12:29:03.170Z,4.57
2023-04-05T12:31:42.693Z,3.90
2023-04-05T12:34:10.774Z,4.30
2023-04-05T12:36:41.504Z,4.15
2023-04-05T12:39:09.999Z,4.03
2023-04-05T12:41:40.624Z,4.13
2023-04-05T12:44:16.719Z,4.35
2023-04-05T12:47:15.207Z,4.70
2023-04-05T12:49:42.394Z,5.68
2023-04-05T12:52:16.148Z,4.05
2023-04-05T12:54:53.253Z,4.00
2023-04-05T12:57:30.583Z,4.63
2023-04-05T12:59:57.315Z,5.18
2023-04-05T13:02:25.198Z,5.10
2023-04-05T13:04:52.166Z,5.15
2023-04-05T13:07:18.850Z,5.63
2023-04-05T13:09:54.104Z,6.00
2023-04-05T13:12:20.784Z,5.60
2023-04-05T13:14:47.481Z,5.05
2023-04-05T13:17:14.428Z,5.90
2023-04-05T13:19:41.078Z,5.80
2023-04-05T13:22:07.701Z,5.63
2023-04-05T13:24:34.328Z,5.70
2023-04-05T13:29:51.755Z,5.55
2023-04-05T13:32:18.423Z,5.85
2023-04-05T13:34:45.130Z,5.43
2023-04-05T13:37:11.782Z,5.80
2023-04-05T13:39:38.435Z,5.43
2023-04-05T13:42:05.617Z,5.38
2023-04-05T13:44:42.877Z,6.40
2023-04-05T13:47:09.644Z,5.57
2023-04-05T13:49:36.352Z,5.90
2023-04-05T13:52:03.116Z,5.45
2023-04-05T13:54:29.826Z,6.30
2023-04-05T13:57:02.841Z,5.28
2023-04-05T13:59:29.635Z,5.18
2023-04-05T14:01:56.366Z,6.15
2023-04-05T14:04:23.173Z,5.30
2023-04-05T14:06:49.809Z,5.03
2023-04-05T14:09:16.551Z,5.75
2023-04-05T14:11:43.408Z,6.95
2023-04-05T14:14:10.410Z,5.40
2023-04-05T14:16:38.090Z,6.05
2023-04-05T14:19:05.310Z,5.10
2023-04-05T14:21:33.105Z,6.93
2023-04-05T14:24:00.037Z,5.43
2023-04-05T14:26:28.181Z,5.90
2023-04-05T14:28:55.156Z,5.40
2023-04-05T14:31:22.887Z,5.50
2023-04-05T14:33:49.654Z,5.38
2023-04-05T14:36:16.446Z,4.70
2023-04-05T14:38:43.472Z,5.25
2023-04-05T14:41:10.482Z,5.07
2023-04-05T14:43:40.901Z,5.10
2023-04-05T14:46:07.839Z,5.55
2023-04-05T14:48:34.631Z,5.93
2023-04-05T14:51:01.489Z,5.50
2023-04-05T14:53:28.283Z,5.60
2023-04-05T14:55:55.230Z,4.70
2023-04-05T14:58:22.054Z,5.43
2023-04-05T15:00:50.070Z,4.47
2023-04-05T15:03:19.758Z,5.32
2023-04-05T15:05:49.522Z,4.70
2023-04-05T15:08:16.561Z,5.32
2023-04-05T15:10:43.787Z,6.07
2023-04-05T15:13:12.396Z,5.20
2023-04-05T15:15:39.568Z,5.93
2023-04-05T15:18:08.067Z,5.85
2023-04-05T15:20:35.670Z,4.78
2023-04-05T15:23:02.727Z,4.60
2023-04-05T15:25:32.438Z,5.85
2023-04-05T15:28:02.725Z,5.22
2023-04-05T15:30:40.577Z,4.68
2023-04-05T15:33:07.385Z,4.85
2023-04-05T15:35:36.548Z,4.50
2023-04-05T15:38:03.691Z,4.65
2023-04-05T15:40:30.680Z,4.82
2023-04-05T15:42:57.559Z,5.13
2023-04-05T15:45:24.408Z,5.63
2023-04-05T15:47:51.180Z,4.95
2023-04-05T15:50:18.160Z,5.80
2023-04-05T15:52:44.953Z,4.80
2023-04-05T15:55:11.742Z,5.60
2023-04-05T15:57:38.700Z,5.72
2023-04-05T16:00:06.527Z,4.72
2023-04-05T16:02:33.413Z,5.03
2023-04-05T16:05:00.173Z,5.72
2023-04-05T16:07:26.964Z,5.38
2023-04-05T16:09:53.660Z,4.97
2023-04-05T16:12:20.503Z,5.78
2023-04-05T16:14:47.191Z,4.85
2023-04-05T16:17:13.999Z,5.32
2023-04-05T16:19:41.086Z,7.28
2023-04-05T16:22:07.926Z,5.70
2023-04-05T16:24:36.651Z,4.97
2023-04-05T16:27:03.440Z,5.90
2023-04-05T16:29:30.116Z,5.05
2023-04-05T16:31:56.923Z,4.97
2023-04-05T16:34:23.689Z,4.78
2023-04-05T16:36:50.403Z,5.25
2023-04-05T16:39:17.126Z,5.15
2023-04-05T16:41:43.822Z,4.88
2023-04-05T16:44:10.756Z,4.97
2023-04-05T16:46:37.725Z,4.97
2023-04-05T16:49:07.182Z,5.03
2023-04-05T16:51:36.509Z,4.57
2023-04-05T16:54:07.786Z,4.78
2023-04-05T16:56:34.567Z,5.20
2023-04-05T16:59:02.261Z,6.20
2023-04-05T17:01:30.846Z,5.47
2023-04-05T17:03:59.848Z,5.53
2023-04-05T17:06:27.939Z,4.65
2023-04-05T17:08:54.859Z,4.70
2023-04-05T17:11:21.565Z,5.00
2023-04-05T17:13:48.334Z,5.57
2023-04-05T17:16:15.646Z,4.57
2023-04-05T17:18:42.495Z,5.00
2023-04-05T17:21:09.161Z,4.53
2023-04-05T17:23:35.921Z,5.07
2023-04-05T17:26:02.659Z,4.85
2023-04-05T17:28:29.432Z,4.25
2023-04-05T17:30:56.186Z,4.57
2023-04-05T17:33:22.952Z,5.20
2023-04-05T17:35:50.052Z,4.85
2023-04-05T17:38:16.749Z,5.05
2023-04-05T17:40:43.479Z,4.55
2023-04-05T17:43:12.793Z,4.72
2023-04-05T17:45:39.660Z,4.38
2023-04-05T17:48:06.428Z,4.82
2023-04-05T17:50:45.292Z,6.63
2023-04-05T17:53:13.565Z,5.65
2023-04-05T17:55:40.592Z,4.63
2023-04-05T17:58:07.339Z,3.45
2023-04-05T18:00:34.183Z,3.30
2023-04-05T18:03:05.931Z,3.55
2023-04-05T18:05:34.811Z,3.25
2023-04-05T18:08:01.667Z,3.30
2023-04-05T18:10:28.578Z,3.70
2023-04-05T18:12:55.608Z,3.47
2023-04-05T18:15:22.330Z,3.38
2023-04-05T18:17:49.157Z,4.22
2023-04-05T18:20:16.343Z,4.15
2023-04-05T18:22:43.161Z,3.88
2023-04-05T18:25:11.725Z,3.72
2023-04-05T18:27:39.336Z,3.95
2023-04-05T18:30:06.760Z,3.72
2023-04-05T18:32:33.583Z,3.53
2023-04-05T18:35:02.622Z,4.43
2023-04-05T18:37:29.761Z,5.97
2023-04-05T18:39:56.468Z,5.60
2023-04-05T18:42:23.229Z,5.00
2023-04-05T18:44:49.950Z,5.78
2023-04-05T18:47:16.790Z,6.32
2023-04-05T18:49:43.533Z,5.35
2023-04-05T18:52:10.554Z,4.00
2023-04-05T18:54:38.604Z,4.57
2023-04-05T18:57:07.386Z,4.82
2023-04-05T18:59:34.244Z,4.32
2023-04-05T19:02:01.068Z,3.42
2023-04-05T19:04:27.946Z,3.72
2023-04-05T19:06:55.237Z,3.67
2023-04-05T19:09:22.252Z,4.43
2023-04-05T19:11:49.151Z,4.60
2023-04-05T19:14:16.393Z,4.32
2023-04-05T19:16:43.159Z,4.57
2023-04-05T19:19:09.957Z,6.05
2023-04-05T19:21:36.863Z,4.18
2023-04-05T19:24:03.777Z,3.90
2023-04-05T19:26:32.229Z,4.30
2023-04-05T19:28:59.034Z,4.70
2023-04-05T19:31:26.420Z,4.80
2023-04-05T19:33:53.241Z,4.88
2023-04-05T19:36:20.173Z,5.97
2023-04-05T19:38:47.058Z,4.75
2023-04-05T19:41:13.794Z,4.95
2023-04-05T19:43:41.286Z,5.85
2023-04-05T19:46:10.693Z,6.03
2023-04-05T19:48:38.555Z,5.97
2023-04-05T19:51:10.404Z,6.13
2023-04-05T19:53:50.076Z,6.25
2023-04-05T19:56:21.036Z,5.00
2023-04-05T19:58:51.090Z,5.95
2023-04-05T20:01:34.300Z,5.25
2023-04-05T20:04:10.292Z,6.35
2023-04-05T20:06:37.929Z,6.07
2023-04-05T20:09:08.470Z,6.38
2023-04-05T20:11:35.532Z,6.03
2023-04-05T20:14:02.960Z,6.07
2023-04-05T20:16:34.737Z,5.93
2023-04-05T20:19:02.589Z,5.95
2023-04-05T20:21:29.588Z,5.80
2023-04-05T20:23:58.294Z,5.90
2023-04-05T20:26:28.119Z,6.00
2023-04-05T20:28:56.597Z,5.60
2023-04-05T20:31:25.778Z,5.95
2023-04-05T20:34:03.687Z,5.68
2023-04-05T20:36:35.015Z,5.72
2023-04-05T20:39:04.151Z,5.03
2023-04-05T20:41:31.710Z,5.80
2023-04-05T20:43:59.281Z,5.30
2023-04-05T20:46:26.343Z,5.63
2023-04-05T20:48:54.176Z,7.47
2023-04-05T20:51:21.027Z,19.90
2023-04-05T20:53:47.831Z,11.18
2023-04-05T20:56:14.564Z,8.07
2023-04-05T20:58:41.600Z,5.70
2023-04-05T21:01:09.532Z,5.35
2023-04-05T21:03:38.900Z,5.00
2023-04-05T21:06:08.161Z,5.10
2023-04-05T21:08:36.870Z,5.35
2023-04-05T21:11:04.370Z,16.80
2023-04-05T21:13:31.193Z,20.60
2023-04-05T21:15:58.707Z,15.50
2023-04-05T21:18:26.135Z,21.42
2023-04-05T21:20:53.876Z,36.20
2023-04-05T21:23:23.804Z,36.63
2023-04-05T21:25:50.639Z,23.55
2023-04-05T21:28:17.428Z,19.50
2023-04-05T21:30:44.781Z,12.68
2023-04-05T21:33:12.513Z,11.50
2023-04-05T21:35:39.532Z,8.68
2023-04-05T21:38:06.551Z,6.80
2023-04-05T21:40:33.833Z,7.38
2023-04-05T21:43:05.874Z,5.60
2023-04-05T21:45:32.625Z,5.57
2023-04-05T21:47:59.542Z,6.18
2023-04-05T21:50:27.329Z,6.82
2023-04-05T21:52:54.236Z,11.05
2023-04-05T21:55:21.095Z,6.57
2023-04-05T21:57:48.038Z,6.47
2023-04-05T22:00:15.598Z,5.82
2023-04-05T22:02:42.441Z,5.70
2023-04-05T22:05:09.884Z,5.70
2023-04-05T22:07:36.955Z,6.25
2023-04-05T22:10:04.604Z,7.40
2023-04-05T22:12:31.485Z,6.70
2023-04-05T22:14:58.349Z,5.95
2023-04-05T22:17:25.246Z,6.25
2023-04-05T22:19:52.113Z,6.13
2023-04-05T22:22:19.336Z,6.30
2023-04-05T22:24:46.198Z,6.38
2023-04-05T22:27:13.135Z,6.15
2023-04-05T22:29:40.401Z,6.03
2023-04-05T22:32:07.233Z,6.78
2023-04-05T22:34:34.124Z,6.00
2023-04-05T22:37:00.978Z,5.55
2023-04-05T22:39:27.818Z,6.15
2023-04-05T22:41:54.887Z,6.20
2023-04-05T22:44:21.948Z,5.82
2023-04-05T22:46:48.656Z,5.95
2023-04-05T22:49:15.478Z,6.53
2023-04-05T22:51:53.543Z,8.45
2023-04-05T22:54:20.421Z,5.95
2023-04-05T22:56:54.165Z,5.47
2023-04-05T22:59:22.796Z,4.78
2023-04-05T23:01:49.654Z,4.93
2023-04-05T23:04:16.787Z,5.13
2023-04-05T23:06:43.516Z,5.63
2023-04-05T23:09:10.548Z,5.13
2023-04-05T23:11:37.473Z,5.65
2023-04-05T23:14:04.274Z,4.90
2023-04-05T23:16:30.949Z,5.43
2023-04-05T23:18:57.852Z,4.82
2023-04-05T23:21:24.603Z,5.32
2023-04-05T23:23:51.395Z,5.25
2023-04-05T23:26:18.162Z,4.57
2023-04-05T23:28:58.943Z,5.55
2023-04-05T23:31:25.844Z,5.13
2023-04-05T23:33:54.011Z,5.22
2023-04-05T23:36:21.972Z,5.03
2023-04-05T23:38:48.701Z,5.47
2023-04-05T23:41:15.681Z,5.53
2023-04-05T23:43:42.374Z,4.97
2023-04-05T23:46:11.550Z,4.40
2023-04-05T23:48:38.492Z,4.82
2023-04-05T23:51:05.351Z,4.70
2023-04-05T23:53:31.992Z,5.75
2023-04-05T23:55:58.782Z,6.60
2023-04-05T23:58:25.630Z,7.55
